»·PEaware :: N172SL KLAX-KSAN

N172SL :: KLAX-KSAN

FLIGHT INFORMATION

Flight Status: Arrived
Operator: Privately registered:
United States
More flights under this callsign
Pilot: Steve L. (17268)
Aircraft: CESSNA 172 SKYHAWK
(C172)
More flights by this aircraft type
Origin: KLAX Los Angeles Intl
United States
Destination: KSAN San Diego Intl-Lindbergh
United States
More flights between these airports :: More routes between these airports
Route:
File this flight plan on PilotEdge
Remarks:
Altitude:
(Current/Filed)
7,500ft
Speed:
(Current/Filed)
115kts
Departed: 02-Dec-17 02:50 PM
Arrived: 02-Dec-17 03:55 PM
Distance/Time
Traveled:
95nm/1:05
Distance/Time
To Go:
Arrived

Flight Plot

Page will automatically refresh every two minutes.


Map Options




Map Legend


Flown Route
Filed Route
Departure Airport
Arrival Airport
Navaid (VOR, NDB)
Fix

Horizontal Profiles

Position Reports

Time Latitude Longitude Heading Altitude Ground
Speed
02-Dec-17 14:44 33.934135 -118.395574 175 106ft 0kts
02-Dec-17 14:45 33.934135 -118.395574 175 106ft 0kts
02-Dec-17 14:46 33.934135 -118.395574 175 106ft 0kts
02-Dec-17 14:47 33.934135 -118.395574 175 106ft 0kts
02-Dec-17 14:48 33.934119 -118.395495 71 106ft 0kts
02-Dec-17 14:49 33.934119 -118.395495 71 106ft 0kts
02-Dec-17 14:50 33.934119 -118.395495 71 106ft 0kts
02-Dec-17 14:51 33.934119 -118.395495 71 106ft 0kts
02-Dec-17 14:52 33.934989 -118.393881 83 103ft 26kts
02-Dec-17 14:53 33.935587 -118.390992 12 102ft 0kts
02-Dec-17 14:54 33.936139 -118.391177 331 102ft 18kts
02-Dec-17 14:55 33.934427 -118.416957 264 574ft 105kts
02-Dec-17 14:56 33.931432 -118.452615 263 1368ft 102kts
02-Dec-17 14:57 33.928691 -118.483589 263 2487ft 82kts
02-Dec-17 14:58 33.925899 -118.514248 264 3014ft 116kts
02-Dec-17 14:59 33.898966 -118.524221 170 2998ft 121kts
02-Dec-17 15:00 33.875988 -118.502249 99 2999ft 121kts
02-Dec-17 15:01 33.870018 -118.462225 99 2998ft 121kts
02-Dec-17 15:02 33.849834 -118.432956 136 3440ft 101kts
02-Dec-17 15:03 33.832038 -118.408237 129 4242ft 99kts
02-Dec-17 15:04 33.813672 -118.384572 135 5057ft 94kts
02-Dec-17 15:05 33.794853 -118.363624 136 5837ft 93kts
02-Dec-17 15:06 33.781155 -118.347077 137 6385ft 94kts
02-Dec-17 15:07 33.761052 -118.326933 138 7071ft 94kts
02-Dec-17 15:08 33.742240 -118.302493 129 7509ft 110kts
02-Dec-17 15:09 33.723727 -118.272841 115 7564ft 110kts
02-Dec-17 15:10 33.712459 -118.236383 109 7503ft 117kts
02-Dec-17 15:11 33.702153 -118.200829 109 7504ft 112kts
02-Dec-17 15:12 33.691930 -118.165375 109 7486ft 113kts
02-Dec-17 15:13 33.676087 -118.133784 128 7486ft 111kts
02-Dec-17 15:14 33.657034 -118.104320 127 7486ft 111kts
02-Dec-17 15:15 33.637086 -118.075937 130 7486ft 111kts
02-Dec-17 15:16 33.616887 -118.047691 130 7486ft 111kts
02-Dec-17 15:17 33.596744 -118.019431 130 7486ft 111kts
02-Dec-17 15:18 33.576667 -117.991168 130 7486ft 111kts
02-Dec-17 15:19 33.555064 -117.964654 136 7486ft 111kts
02-Dec-17 15:20 33.532556 -117.939152 136 7486ft 111kts
02-Dec-17 15:21 33.509093 -117.912418 139 7486ft 118kts
02-Dec-17 15:22 33.483326 -117.887415 141 7486ft 119kts
02-Dec-17 15:23 33.457656 -117.862504 140 7486ft 119kts
02-Dec-17 15:24 33.432760 -117.838266 140 7486ft 119kts
02-Dec-17 15:25 33.407091 -117.813195 140 7486ft 119kts
02-Dec-17 15:26 33.381461 -117.788078 140 7486ft 119kts
02-Dec-17 15:27 33.356007 -117.763051 140 7486ft 119kts
02-Dec-17 15:28 33.330547 -117.737935 140 7486ft 119kts
02-Dec-17 15:29 33.305030 -117.712680 140 7486ft 119kts
02-Dec-17 15:30 33.279379 -117.687665 145 7486ft 119kts
02-Dec-17 15:31 33.251581 -117.666159 147 7431ft 123kts
02-Dec-17 15:32 33.222368 -117.643683 147 6631ft 123kts
02-Dec-17 15:33 33.193657 -117.621525 147 5831ft 123kts
02-Dec-17 15:34 33.164730 -117.599138 147 4964ft 124kts
02-Dec-17 15:35 33.137031 -117.577625 146 3964ft 119kts
02-Dec-17 15:36 33.110821 -117.557166 146 3482ft 104kts
02-Dec-17 15:37 33.086839 -117.536903 121 3480ft 107kts
02-Dec-17 15:38 33.082551 -117.501739 90 3483ft 108kts
02-Dec-17 15:39 33.083062 -117.465856 86 3483ft 109kts
02-Dec-17 15:40 33.084730 -117.429805 86 3483ft 110kts
02-Dec-17 15:41 33.087514 -117.393321 84 3483ft 110kts
02-Dec-17 15:42 33.090082 -117.357060 87 3483ft 110kts
02-Dec-17 15:43 33.091275 -117.323709 87 3483ft 110kts
02-Dec-17 15:44 33.087965 -117.289534 144 3481ft 110kts
02-Dec-17 15:45 33.058050 -117.292384 187 3483ft 110kts
02-Dec-17 15:46 33.027328 -117.293764 175 3483ft 110kts
02-Dec-17 15:47 32.996666 -117.290584 175 3483ft 110kts
02-Dec-17 15:48 32.966206 -117.286368 167 3482ft 110kts
02-Dec-17 15:49 32.941229 -117.279404 167 3483ft 110kts
02-Dec-17 15:50 32.906248 -117.269547 166 3483ft 110kts
02-Dec-17 15:51 32.881737 -117.262590 166 3483ft 110kts
02-Dec-17 15:52 32.846911 -117.252634 166 3483ft 110kts
02-Dec-17 15:53 32.817543 -117.256373 203 3483ft 110kts
02-Dec-17 15:54 32.793448 -117.266014 168 3473ft 111kts
02-Dec-17 15:55 32.782100 -117.233478 91 3266ft 117kts
02-Dec-17 15:56 32.765708 -117.202168 125 2812ft 114kts
02-Dec-17 15:57 32.749128 -117.166315 118 1330ft 92kts
02-Dec-17 15:58 32.735446 -117.159994 186 842ft 69kts
02-Dec-17 15:59 32.730383 -117.176741 285 139ft 51kts
02-Dec-17 16:00 32.733091 -117.184267 8 16ft 0kts
02-Dec-17 16:01 32.733916 -117.186333 287 17ft 14kts

Navigation Log

Ident Type
1. KLAX Airport
2. KSAN Airport